sensor_id;sensor_type;location;lat;lon;timestamp;pressure;altitude;pressure_sealevel;temperature;humidity
34145;BME280;20422;53.014;8.886;2022-09-09T00:09:27;100729.25;;;13.98;100.00
34145;BME280;20422;53.014;8.886;2022-09-09T00:12:16;100728.41;;;13.98;100.00
34145;BME280;20422;53.014;8.886;2022-09-09T00:15:00;100712.88;;;13.90;100.00
34145;BME280;20422;53.014;8.886;2022-09-09T00:17:38;100725.84;;;13.96;100.00
34145;BME280;20422;53.014;8.886;2022-09-09T00:23:05;100720.47;;;13.85;100.00
34145;BME280;20422;53.014;8.886;2022-09-09T00:25:51;100725.63;;;13.88;100.00
34145;BME280;20422;53.014;8.886;2022-09-09T00:28:24;100723.28;;;13.83;100.00
34145;BME280;20422;53.014;8.886;2022-09-09T00:30:50;100731.72;;;13.90;100.00
34145;BME280;20422;53.014;8.886;2022-09-09T00:33:19;100718.63;;;13.85;100.00
34145;BME280;20422;53.014;8.886;2022-09-09T00:35:52;100729.03;;;13.90;100.00
34145;BME280;20422;53.014;8.886;2022-09-09T00:38:38;100731.13;;;13.86;100.00
34145;BME280;20422;53.014;8.886;2022-09-09T00:41:14;100738.56;;;13.94;100.00
34145;BME280;20422;53.014;8.886;2022-09-09T00:43:46;100723.38;;;13.82;100.00
34145;BME280;20422;53.014;8.886;2022-09-09T00:46:25;100726.97;;;13.82;100.00
34145;BME280;20422;53.014;8.886;2022-09-09T00:57:26;100719.75;;;13.72;100.00
34145;BME280;20422;53.014;8.886;2022-09-09T01:00:56;100716.19;;;13.71;100.00
34145;BME280;20422;53.014;8.886;2022-09-09T01:06:01;100725.13;;;13.60;100.00
34145;BME280;20422;53.014;8.886;2022-09-09T01:16:58;100731.25;;;13.51;100.00
34145;BME280;20422;53.014;8.886;2022-09-09T01:27:35;100712.28;;;13.30;100.00
34145;BME280;20422;53.014;8.886;2022-09-09T01:30:08;100709.34;;;13.34;100.00
34145;BME280;20422;53.014;8.886;2022-09-09T01:32:42;100723.28;;;13.39;100.00
34145;BME280;20422;53.014;8.886;2022-09-09T01:37:52;100717.28;;;13.35;100.00
34145;BME280;20422;53.014;8.886;2022-09-09T01:40:17;100706.78;;;13.32;100.00
34145;BME280;20422;53.014;8.886;2022-09-09T01:42:43;100698.31;;;13.25;100.00
34145;BME280;20422;53.014;8.886;2022-09-09T01:45:08;100706.16;;;13.28;100.00
34145;BME280;20422;53.014;8.886;2022-09-09T01:47:34;100705.53;;;13.25;100.00
34145;BME280;20422;53.014;8.886;2022-09-09T01:50:01;100706.91;;;13.30;100.00
34145;BME280;20422;53.014;8.886;2022-09-09T01:52:27;100692.31;;;13.22;100.00
34145;BME280;20422;53.014;8.886;2022-09-09T01:54:52;100713.84;;;13.22;100.00
34145;BME280;20422;53.014;8.886;2022-09-09T01:57:23;100693.22;;;13.10;100.00
34145;BME280;20422;53.014;8.886;2022-09-09T02:05:35;100701.41;;;13.08;100.00
34145;BME280;20422;53.014;8.886;2022-09-09T02:08:15;100684.06;;;13.01;100.00
34145;BME280;20422;53.014;8.886;2022-09-09T02:11:01;100695.81;;;13.00;100.00
34145;BME280;20422;53.014;8.886;2022-09-09T02:13:28;100699.34;;;13.00;100.00
34145;BME280;20422;53.014;8.886;2022-09-09T02:21:25;100700.03;;;12.91;100.00
34145;BME280;20422;53.014;8.886;2022-09-09T02:23:54;100679.75;;;12.76;100.00
34145;BME280;20422;53.014;8.886;2022-09-09T02:26:21;100695.25;;;12.84;100.00
34145;BME280;20422;53.014;8.886;2022-09-09T02:28:49;100700.28;;;12.88;100.00
34145;BME280;20422;53.014;8.886;2022-09-09T02:31:18;100694.66;;;12.80;100.00
34145;BME280;20422;53.014;8.886;2022-09-09T02:33:51;100711.66;;;12.81;100.00
34145;BME280;20422;53.014;8.886;2022-09-09T02:36:19;100631.19;;;12.31;100.00
34145;BME280;20422;53.014;8.886;2022-09-09T02:38:46;100709.94;;;12.80;100.00
34145;BME280;20422;53.014;8.886;2022-09-09T02:41:17;100704.69;;;12.78;100.00
34145;BME280;20422;53.014;8.886;2022-09-09T02:43:43;100673.81;;;12.60;100.00
34145;BME280;20422;53.014;8.886;2022-09-09T02:48:52;100692.91;;;12.68;100.00
34145;BME280;20422;53.014;8.886;2022-09-09T02:56:53;100703.16;;;12.63;100.00
34145;BME280;20422;53.014;8.886;2022-09-09T02:59:22;100700.34;;;12.64;100.00
34145;BME280;20422;53.014;8.886;2022-09-09T03:01:50;100696.50;;;12.56;100.00
34145;BME280;20422;53.014;8.886;2022-09-09T03:04:15;100691.03;;;12.57;100.00
34145;BME280;20422;53.014;8.886;2022-09-09T03:06:40;100687.38;;;12.58;100.00
34145;BME280;20422;53.014;8.886;2022-09-09T03:09:06;100681.22;;;12.45;100.00
34145;BME280;20422;53.014;8.886;2022-09-09T03:11:33;100699.84;;;12.59;100.00
34145;BME280;20422;53.014;8.886;2022-09-09T03:13:58;100656.00;;;12.35;100.00
34145;BME280;20422;53.014;8.886;2022-09-09T03:16:23;100692.63;;;12.60;100.00
34145;BME280;20422;53.014;8.886;2022-09-09T03:18:50;100716.00;;;12.70;100.00
34145;BME280;20422;53.014;8.886;2022-09-09T03:21:16;100720.63;;;12.68;100.00
34145;BME280;20422;53.014;8.886;2022-09-09T03:23:41;100716.34;;;12.66;100.00
34145;BME280;20422;53.014;8.886;2022-09-09T03:26:07;100704.47;;;12.57;100.00
34145;BME280;20422;53.014;8.886;2022-09-09T03:28:32;100701.03;;;12.55;100.00
34145;BME280;20422;53.014;8.886;2022-09-09T03:31:03;100722.84;;;12.75;100.00
34145;BME280;20422;53.014;8.886;2022-09-09T03:33:29;100732.31;;;12.80;100.00
34145;BME280;20422;53.014;8.886;2022-09-09T03:35:54;100724.47;;;12.77;100.00
34145;BME280;20422;53.014;8.886;2022-09-09T03:38:22;100719.94;;;12.78;100.00
34145;BME280;20422;53.014;8.886;2022-09-09T03:40:52;100713.06;;;12.74;100.00
34145;BME280;20422;53.014;8.886;2022-09-09T03:43:24;100731.47;;;12.91;100.00
34145;BME280;20422;53.014;8.886;2022-09-09T03:45:50;100727.91;;;12.90;100.00
34145;BME280;20422;53.014;8.886;2022-09-09T03:48:17;100708.22;;;12.90;100.00
34145;BME280;20422;53.014;8.886;2022-09-09T03:50:47;100722.47;;;13.03;100.00
34145;BME280;20422;53.014;8.886;2022-09-09T03:53:13;100727.22;;;12.99;100.00
34145;BME280;20422;53.014;8.886;2022-09-09T03:55:38;100698.31;;;12.90;100.00
34145;BME280;20422;53.014;8.886;2022-09-09T03:58:03;100721.22;;;13.07;100.00
34145;BME280;20422;53.014;8.886;2022-09-09T04:00:29;100710.84;;;13.02;100.00
34145;BME280;20422;53.014;8.886;2022-09-09T04:02:55;100707.16;;;13.04;100.00
34145;BME280;20422;53.014;8.886;2022-09-09T04:05:21;100625.66;;;12.57;100.00
34145;BME280;20422;53.014;8.886;2022-09-09T04:07:47;100685.63;;;12.92;100.00
34145;BME280;20422;53.014;8.886;2022-09-09T04:10:12;100720.91;;;13.12;100.00
34145;BME280;20422;53.014;8.886;2022-09-09T04:12:38;100719.66;;;13.05;100.00
34145;BME280;20422;53.014;8.886;2022-09-09T04:15:04;100699.34;;;13.00;100.00
34145;BME280;20422;53.014;8.886;2022-09-09T04:17:29;100702.41;;;13.07;100.00
34145;BME280;20422;53.014;8.886;2022-09-09T04:19:55;100711.47;;;13.17;100.00
34145;BME280;20422;53.014;8.886;2022-09-09T04:22:20;100700.44;;;13.09;100.00
34145;BME280;20422;53.014;8.886;2022-09-09T04:24:47;100679.16;;;13.06;100.00
34145;BME280;20422;53.014;8.886;2022-09-09T04:27:12;100704.38;;;13.16;100.00
34145;BME280;20422;53.014;8.886;2022-09-09T04:29:37;100724.13;;;13.28;100.00
34145;BME280;20422;53.014;8.886;2022-09-09T04:32:03;100691.78;;;13.17;100.00
34145;BME280;20422;53.014;8.886;2022-09-09T04:34:28;100719.84;;;13.37;100.00
34145;BME280;20422;53.014;8.886;2022-09-09T04:36:54;100730.63;;;13.37;100.00
34145;BME280;20422;53.014;8.886;2022-09-09T04:39:20;100740.56;;;13.47;100.00
34145;BME280;20422;53.014;8.886;2022-09-09T04:41:45;100724.13;;;13.39;100.00
34145;BME280;20422;53.014;8.886;2022-09-09T04:44:10;100736.88;;;13.48;100.00
34145;BME280;20422;53.014;8.886;2022-09-09T04:46:36;100703.97;;;13.34;100.00
34145;BME280;20422;53.014;8.886;2022-09-09T04:49:01;100751.81;;;13.52;100.00
34145;BME280;20422;53.014;8.886;2022-09-09T04:51:26;100738.59;;;13.49;100.00
34145;BME280;20422;53.014;8.886;2022-09-09T04:53:53;100742.75;;;13.53;100.00
34145;BME280;20422;53.014;8.886;2022-09-09T04:56:19;100754.50;;;13.52;100.00
34145;BME280;20422;53.014;8.886;2022-09-09T04:58:44;100713.84;;;13.22;100.00
34145;BME280;20422;53.014;8.886;2022-09-09T05:01:11;100758.31;;;13.50;100.00
34145;BME280;20422;53.014;8.886;2022-09-09T05:03:37;100723.50;;;13.24;100.00
34145;BME280;20422;53.014;8.886;2022-09-09T05:06:11;100756.44;;;13.39;100.00
34145;BME280;20422;53.014;8.886;2022-09-09T05:08:37;100717.00;;;13.16;100.00
34145;BME280;20422;53.014;8.886;2022-09-09T05:11:04;100753.75;;;13.39;100.00
34145;BME280;20422;53.014;8.886;2022-09-09T05:13:29;100765.66;;;13.48;100.00
34145;BME280;20422;53.014;8.886;2022-09-09T05:15:57;100771.03;;;13.48;100.00
34145;BME280;20422;53.014;8.886;2022-09-09T05:18:22;100776.50;;;13.46;100.00
34145;BME280;20422;53.014;8.886;2022-09-09T05:20:49;100776.16;;;13.51;100.00
34145;BME280;20422;53.014;8.886;2022-09-09T05:23:16;100758.63;;;13.45;100.00
34145;BME280;20422;53.014;8.886;2022-09-09T05:25:41;100759.41;;;13.47;100.00
34145;BME280;20422;53.014;8.886;2022-09-09T05:28:07;100763.44;;;13.53;100.00
34145;BME280;20422;53.014;8.886;2022-09-09T05:30:33;100780.69;;;13.61;100.00
34145;BME280;20422;53.014;8.886;2022-09-09T05:32:58;100774.69;;;13.58;100.00
34145;BME280;20422;53.014;8.886;2022-09-09T05:35:24;100778.25;;;13.58;100.00
34145;BME280;20422;53.014;8.886;2022-09-09T05:37:49;100782.88;;;13.56;100.00
34145;BME280;20422;53.014;8.886;2022-09-09T05:40:14;100787.31;;;13.57;100.00
34145;BME280;20422;53.014;8.886;2022-09-09T05:42:40;100789.41;;;13.65;100.00
34145;BME280;20422;53.014;8.886;2022-09-09T05:45:07;100755.59;;;13.39;100.00
34145;BME280;20422;53.014;8.886;2022-09-09T05:47:33;100802.38;;;13.71;100.00
34145;BME280;20422;53.014;8.886;2022-09-09T05:49:58;100754.03;;;13.47;100.00
34145;BME280;20422;53.014;8.886;2022-09-09T05:52:24;100782.03;;;13.56;100.00
34145;BME280;20422;53.014;8.886;2022-09-09T05:54:51;100801.41;;;13.72;100.00
34145;BME280;20422;53.014;8.886;2022-09-09T05:57:16;100788.78;;;13.73;100.00
34145;BME280;20422;53.014;8.886;2022-09-09T05:59:42;100799.19;;;13.88;100.00
34145;BME280;20422;53.014;8.886;2022-09-09T06:02:08;100801.88;;;14.11;100.00
34145;BME280;20422;53.014;8.886;2022-09-09T06:04:34;100778.59;;;14.10;100.00
34145;BME280;20422;53.014;8.886;2022-09-09T06:07:00;100763.78;;;14.15;100.00
34145;BME280;20422;53.014;8.886;2022-09-09T06:09:25;100792.41;;;14.50;100.00
34145;BME280;20422;53.014;8.886;2022-09-09T06:11:50;100766.03;;;14.54;100.00
34145;BME280;20422;53.014;8.886;2022-09-09T06:14:15;100783.88;;;15.09;100.00
34145;BME280;20422;53.014;8.886;2022-09-09T06:16:43;100761.97;;;16.15;100.00
34145;BME280;20422;53.014;8.886;2022-09-09T06:19:09;100784.88;;;18.49;100.00
34145;BME280;20422;53.014;8.886;2022-09-09T06:21:36;100790.00;;;18.25;100.00
34145;BME280;20422;53.014;8.886;2022-09-09T06:24:05;100782.66;;;17.80;100.00
34145;BME280;20422;53.014;8.886;2022-09-09T06:26:34;100793.09;;;18.30;100.00
34145;BME280;20422;53.014;8.886;2022-09-09T06:29:02;100785.88;;;19.55;100.00
34145;BME280;20422;53.014;8.886;2022-09-09T06:31:29;100773.38;;;21.46;91.94
34145;BME280;20422;53.014;8.886;2022-09-09T06:33:58;100759.69;;;22.56;85.07
34145;BME280;20422;53.014;8.886;2022-09-09T06:36:32;100758.75;;;22.72;84.57
34145;BME280;20422;53.014;8.886;2022-09-09T06:38:59;100759.81;;;23.17;81.09
34145;BME280;20422;53.014;8.886;2022-09-09T06:41:28;100763.75;;;22.60;82.41
34145;BME280;20422;53.014;8.886;2022-09-09T06:43:55;100743.22;;;21.31;86.21
34145;BME280;20422;53.014;8.886;2022-09-09T06:46:23;100774.38;;;20.29;92.24
34145;BME280;20422;53.014;8.886;2022-09-09T06:48:55;100771.63;;;19.17;97.17
34145;BME280;20422;53.014;8.886;2022-09-09T06:51:35;100762.97;;;18.78;100.00
34145;BME280;20422;53.014;8.886;2022-09-09T06:54:03;100770.91;;;18.89;100.00
34145;BME280;20422;53.014;8.886;2022-09-09T06:56:37;100756.50;;;19.15;100.00
34145;BME280;20422;53.014;8.886;2022-09-09T06:59:09;100758.84;;;20.72;95.84
34145;BME280;20422;53.014;8.886;2022-09-09T07:01:37;100755.50;;;22.07;87.20
34145;BME280;20422;53.014;8.886;2022-09-09T07:04:06;100762.16;;;22.43;86.88
34145;BME280;20422;53.014;8.886;2022-09-09T07:06:37;100759.00;;;23.08;83.80
34145;BME280;20422;53.014;8.886;2022-09-09T07:09:06;100753.31;;;23.18;80.52
34145;BME280;20422;53.014;8.886;2022-09-09T07:11:36;100722.38;;;23.32;80.35
34145;BME280;20422;53.014;8.886;2022-09-09T07:14:03;100750.41;;;24.67;77.09
34145;BME280;20422;53.014;8.886;2022-09-09T07:16:30;100745.97;;;25.09;77.09
34145;BME280;20422;53.014;8.886;2022-09-09T07:18:59;100759.50;;;25.10;73.68
34145;BME280;20422;53.014;8.886;2022-09-09T07:21:27;100756.78;;;25.66;73.94
34145;BME280;20422;53.014;8.886;2022-09-09T07:23:54;100770.19;;;24.48;75.81
34145;BME280;20422;53.014;8.886;2022-09-09T07:26:24;100767.06;;;25.08;75.21
34145;BME280;20422;53.014;8.886;2022-09-09T07:28:51;100767.25;;;25.28;73.61
34145;BME280;20422;53.014;8.886;2022-09-09T07:31:20;100766.03;;;26.28;73.15
34145;BME280;20422;53.014;8.886;2022-09-09T07:33:48;100762.25;;;25.32;74.47
34145;BME280;20422;53.014;8.886;2022-09-09T07:36:18;100767.91;;;25.30;75.09
34145;BME280;20422;53.014;8.886;2022-09-09T07:39:05;100770.34;;;25.18;74.16
34145;BME280;20422;53.014;8.886;2022-09-09T07:41:43;100761.03;;;24.77;73.95
34145;BME280;20422;53.014;8.886;2022-09-09T07:44:13;100751.25;;;24.02;77.79
34145;BME280;20422;53.014;8.886;2022-09-09T07:46:40;100781.44;;;23.79;78.42
34145;BME280;20422;53.014;8.886;2022-09-09T07:49:08;100759.31;;;24.54;78.23
34145;BME280;20422;53.014;8.886;2022-09-09T07:51:36;100773.16;;;23.72;78.96
34145;BME280;20422;53.014;8.886;2022-09-09T07:54:05;100783.31;;;23.64;78.72
34145;BME280;20422;53.014;8.886;2022-09-09T07:56:31;100770.78;;;24.14;79.07
34145;BME280;20422;53.014;8.886;2022-09-09T07:58:57;100778.81;;;24.15;79.32
34145;BME280;20422;53.014;8.886;2022-09-09T08:01:32;100755.09;;;23.63;79.31
34145;BME280;20422;53.014;8.886;2022-09-09T08:04:00;100770.59;;;24.15;77.68
34145;BME280;20422;53.014;8.886;2022-09-09T08:06:36;100742.84;;;23.59;79.13
34145;BME280;20422;53.014;8.886;2022-09-09T08:09:03;100780.53;;;24.31;77.88
34145;BME280;20422;53.014;8.886;2022-09-09T08:11:29;100773.88;;;23.66;77.46
34145;BME280;20422;53.014;8.886;2022-09-09T08:13:56;100773.69;;;22.22;82.31
34145;BME280;20422;53.014;8.886;2022-09-09T08:16:24;100709.31;;;21.17;84.94
34145;BME280;20422;53.014;8.886;2022-09-09T08:18:50;100776.06;;;21.62;85.13
34145;BME280;20422;53.014;8.886;2022-09-09T08:21:22;100786.66;;;22.28;84.12
34145;BME280;20422;53.014;8.886;2022-09-09T08:23:51;100784.00;;;22.74;82.78
34145;BME280;20422;53.014;8.886;2022-09-09T08:26:22;100783.94;;;22.20;83.08
34145;BME280;20422;53.014;8.886;2022-09-09T08:28:52;100776.91;;;22.26;83.73
34145;BME280;20422;53.014;8.886;2022-09-09T08:31:20;100751.22;;;21.57;86.13
34145;BME280;20422;53.014;8.886;2022-09-09T08:33:46;100789.06;;;22.54;85.11
34145;BME280;20422;53.014;8.886;2022-09-09T08:36:29;100778.41;;;22.68;82.73
34145;BME280;20422;53.014;8.886;2022-09-09T08:38:57;100758.31;;;22.29;83.41
34145;BME280;20422;53.014;8.886;2022-09-09T08:50:32;100787.56;;;22.44;80.55
34145;BME280;20422;53.014;8.886;2022-09-09T08:53:20;100787.72;;;22.81;81.90
34145;BME280;20422;53.014;8.886;2022-09-09T08:55:53;100784.75;;;21.74;84.41
34145;BME280;20422;53.014;8.886;2022-09-09T08:58:25;100778.41;;;21.81;83.63
34145;BME280;20422;53.014;8.886;2022-09-09T09:12:42;100799.59;;;21.22;87.88
34145;BME280;20422;53.014;8.886;2022-09-09T09:15:31;100800.66;;;21.29;87.62
34145;BME280;20422;53.014;8.886;2022-09-09T09:18:05;100794.16;;;21.47;87.14
34145;BME280;20422;53.014;8.886;2022-09-09T09:20:40;100797.69;;;21.71;85.61
34145;BME280;20422;53.014;8.886;2022-09-09T09:23:17;100803.38;;;21.37;86.94
34145;BME280;20422;53.014;8.886;2022-09-09T09:25:46;100794.28;;;21.69;86.31
34145;BME280;20422;53.014;8.886;2022-09-09T09:28:18;100790.25;;;21.33;87.91
34145;BME280;20422;53.014;8.886;2022-09-09T09:31:12;100798.25;;;21.42;86.90
34145;BME280;20422;53.014;8.886;2022-09-09T09:33:53;100794.31;;;21.53;86.20
34145;BME280;20422;53.014;8.886;2022-09-09T09:36:21;100782.41;;;21.46;87.60
34145;BME280;20422;53.014;8.886;2022-09-09T09:38:58;100784.47;;;21.28;87.87
34145;BME280;20422;53.014;8.886;2022-09-09T09:41:43;100783.97;;;21.24;88.73
34145;BME280;20422;53.014;8.886;2022-09-09T09:44:28;100793.81;;;21.50;88.54
34145;BME280;20422;53.014;8.886;2022-09-09T09:47:16;100803.34;;;21.05;88.77
34145;BME280;20422;53.014;8.886;2022-09-09T09:49:56;100799.16;;;20.52;90.01
34145;BME280;20422;53.014;8.886;2022-09-09T09:52:26;100807.09;;;20.45;91.95
34145;BME280;20422;53.014;8.886;2022-09-09T09:54:55;100812.88;;;20.42;91.72
34145;BME280;20422;53.014;8.886;2022-09-09T09:57:31;100801.72;;;20.62;92.47
34145;BME280;20422;53.014;8.886;2022-09-09T10:00:16;100754.16;;;20.32;90.74
34145;BME280;20422;53.014;8.886;2022-09-09T10:02:45;100801.88;;;20.60;91.36
34145;BME280;20422;53.014;8.886;2022-09-09T10:05:28;100797.00;;;20.30;93.88
34145;BME280;20422;53.014;8.886;2022-09-09T10:08:15;100808.81;;;20.46;92.85
34145;BME280;20422;53.014;8.886;2022-09-09T10:11:09;100804.00;;;20.83;90.41
34145;BME280;20422;53.014;8.886;2022-09-09T10:14:21;100795.34;;;21.20;89.54
34145;BME280;20422;53.014;8.886;2022-09-09T10:22:51;100803.19;;;21.23;89.38
34145;BME280;20422;53.014;8.886;2022-09-09T10:25:52;100803.66;;;21.18;89.22
34145;BME280;20422;53.014;8.886;2022-09-09T10:31:48;100812.19;;;21.07;88.63
34145;BME280;20422;53.014;8.886;2022-09-09T10:40:21;100808.59;;;21.71;87.17
34145;BME280;20422;53.014;8.886;2022-09-09T10:42:58;100803.53;;;21.52;84.28
34145;BME280;20422;53.014;8.886;2022-09-09T10:45:57;100787.69;;;21.48;83.32
34145;BME280;20422;53.014;8.886;2022-09-09T10:51:40;100780.03;;;21.27;85.36
34145;BME280;20422;53.014;8.886;2022-09-09T11:02:52;100803.69;;;21.59;82.42
34145;BME280;20422;53.014;8.886;2022-09-09T11:05:31;100801.66;;;21.45;83.37
34145;BME280;20422;53.014;8.886;2022-09-09T11:08:09;100777.38;;;21.90;84.66
34145;BME280;20422;53.014;8.886;2022-09-09T11:16:56;100787.53;;;22.21;80.37
34145;BME280;20422;53.014;8.886;2022-09-09T11:19:42;100782.34;;;21.79;82.07
34145;BME280;20422;53.014;8.886;2022-09-09T11:25:41;100793.13;;;21.64;83.10
34145;BME280;20422;53.014;8.886;2022-09-09T11:31:38;100790.44;;;22.19;82.58
34145;BME280;20422;53.014;8.886;2022-09-09T11:37:46;100782.72;;;22.31;81.42
34145;BME280;20422;53.014;8.886;2022-09-09T11:40:23;100780.84;;;22.31;81.71
34145;BME280;20422;53.014;8.886;2022-09-09T11:43:01;100787.41;;;22.06;82.61
34145;BME280;20422;53.014;8.886;2022-09-09T11:45:29;100801.47;;;21.62;84.91
34145;BME280;20422;53.014;8.886;2022-09-09T11:48:00;100805.31;;;20.70;94.69
34145;BME280;20422;53.014;8.886;2022-09-09T11:50:32;100800.94;;;20.35;99.09
34145;BME280;20422;53.014;8.886;2022-09-09T11:55:41;100791.19;;;20.25;100.00
34145;BME280;20422;53.014;8.886;2022-09-09T12:00:50;100813.00;;;19.99;100.00
34145;BME280;20422;53.014;8.886;2022-09-09T12:03:50;100823.94;;;19.81;100.00
34145;BME280;20422;53.014;8.886;2022-09-09T12:12:36;100827.38;;;19.21;100.00
34145;BME280;20422;53.014;8.886;2022-09-09T12:17:57;100818.50;;;19.01;100.00
34145;BME280;20422;53.014;8.886;2022-09-09T12:23:19;100813.88;;;19.12;100.00
34145;BME280;20422;53.014;8.886;2022-09-09T12:32:10;100810.63;;;19.08;100.00
34145;BME280;20422;53.014;8.886;2022-09-09T12:34:55;100808.91;;;19.07;100.00
34145;BME280;20422;53.014;8.886;2022-09-09T12:37:58;100777.66;;;18.58;100.00
34145;BME280;20422;53.014;8.886;2022-09-09T12:40:31;100813.00;;;18.76;100.00
34145;BME280;20422;53.014;8.886;2022-09-09T12:43:15;100813.72;;;18.78;100.00
34145;BME280;20422;53.014;8.886;2022-09-09T12:45:43;100828.28;;;18.77;100.00
34145;BME280;20422;53.014;8.886;2022-09-09T12:48:11;100832.72;;;18.78;100.00
34145;BME280;20422;53.014;8.886;2022-09-09T12:50:51;100833.06;;;18.65;100.00
34145;BME280;20422;53.014;8.886;2022-09-09T12:53:37;100835.97;;;18.54;100.00
34145;BME280;20422;53.014;8.886;2022-09-09T12:56:07;100846.28;;;18.50;100.00
34145;BME280;20422;53.014;8.886;2022-09-09T12:58:36;100841.38;;;18.36;100.00
34145;BME280;20422;53.014;8.886;2022-09-09T13:01:05;100832.63;;;18.05;100.00
34145;BME280;20422;53.014;8.886;2022-09-09T13:03:33;100818.59;;;17.82;100.00
34145;BME280;20422;53.014;8.886;2022-09-09T13:06:32;100793.22;;;17.64;100.00
34145;BME280;20422;53.014;8.886;2022-09-09T13:09:02;100810.16;;;17.85;100.00
34145;BME280;20422;53.014;8.886;2022-09-09T13:11:52;100807.16;;;17.88;100.00
34145;BME280;20422;53.014;8.886;2022-09-09T13:14:36;100778.69;;;18.02;100.00
34145;BME280;20422;53.014;8.886;2022-09-09T13:17:06;100796.81;;;18.29;100.00
34145;BME280;20422;53.014;8.886;2022-09-09T13:19:44;100798.84;;;18.54;100.00
34145;BME280;20422;53.014;8.886;2022-09-09T13:22:34;100805.03;;;18.74;100.00
34145;BME280;20422;53.014;8.886;2022-09-09T13:27:40;100811.69;;;18.97;100.00
34145;BME280;20422;53.014;8.886;2022-09-09T13:30:24;100807.81;;;19.00;100.00
34145;BME280;20422;53.014;8.886;2022-09-09T13:33:01;100807.38;;;19.05;100.00
34145;BME280;20422;53.014;8.886;2022-09-09T13:35:27;100795.31;;;19.25;100.00
34145;BME280;20422;53.014;8.886;2022-09-09T13:37:53;100794.38;;;19.16;100.00
34145;BME280;20422;53.014;8.886;2022-09-09T13:40:23;100808.91;;;19.25;100.00
34145;BME280;20422;53.014;8.886;2022-09-09T13:42:51;100813.00;;;19.11;100.00
34145;BME280;20422;53.014;8.886;2022-09-09T13:45:19;100818.91;;;19.24;100.00
34145;BME280;20422;53.014;8.886;2022-09-09T13:47:49;100816.81;;;19.18;100.00
34145;BME280;20422;53.014;8.886;2022-09-09T13:50:30;100808.13;;;19.15;100.00
34145;BME280;20422;53.014;8.886;2022-09-09T13:52:57;100808.97;;;19.15;100.00
34145;BME280;20422;53.014;8.886;2022-09-09T13:55:29;100793.63;;;19.06;100.00
34145;BME280;20422;53.014;8.886;2022-09-09T13:58:00;100810.38;;;19.01;100.00
34145;BME280;20422;53.014;8.886;2022-09-09T14:00:32;100805.75;;;18.66;100.00
34145;BME280;20422;53.014;8.886;2022-09-09T14:02:59;100795.31;;;18.44;100.00
34145;BME280;20422;53.014;8.886;2022-09-09T14:05:31;100799.09;;;18.33;100.00
34145;BME280;20422;53.014;8.886;2022-09-09T14:07:59;100814.03;;;18.20;100.00
34145;BME280;20422;53.014;8.886;2022-09-09T14:10:29;100819.63;;;18.08;100.00
34145;BME280;20422;53.014;8.886;2022-09-09T14:12:56;100822.25;;;18.00;100.00
34145;BME280;20422;53.014;8.886;2022-09-09T14:15:23;100824.25;;;17.98;100.00
34145;BME280;20422;53.014;8.886;2022-09-09T14:17:49;100816.13;;;17.89;100.00
34145;BME280;20422;53.014;8.886;2022-09-09T14:20:16;100826.19;;;17.78;100.00
34145;BME280;20422;53.014;8.886;2022-09-09T14:22:43;100807.34;;;17.67;100.00
34145;BME280;20422;53.014;8.886;2022-09-09T14:25:10;100808.78;;;17.62;100.00
34145;BME280;20422;53.014;8.886;2022-09-09T14:27:40;100809.63;;;17.62;100.00
34145;BME280;20422;53.014;8.886;2022-09-09T14:30:07;100835.16;;;17.69;100.00
34145;BME280;20422;53.014;8.886;2022-09-09T14:32:33;100834.31;;;17.69;100.00
34145;BME280;20422;53.014;8.886;2022-09-09T14:34:59;100811.19;;;17.65;100.00
34145;BME280;20422;53.014;8.886;2022-09-09T14:37:27;100812.19;;;17.64;100.00
34145;BME280;20422;53.014;8.886;2022-09-09T14:39:52;100813.75;;;17.57;100.00
34145;BME280;20422;53.014;8.886;2022-09-09T14:42:19;100822.03;;;17.65;100.00
34145;BME280;20422;53.014;8.886;2022-09-09T14:44:44;100815.91;;;17.72;100.00
34145;BME280;20422;53.014;8.886;2022-09-09T14:47:10;100794.84;;;17.47;100.00
34145;BME280;20422;53.014;8.886;2022-09-09T14:49:35;100812.78;;;17.38;100.00
34145;BME280;20422;53.014;8.886;2022-09-09T14:52:04;100791.16;;;17.19;100.00
34145;BME280;20422;53.014;8.886;2022-09-09T14:54:33;100780.75;;;17.14;100.00
34145;BME280;20422;53.014;8.886;2022-09-09T14:56:58;100759.13;;;16.95;100.00
34145;BME280;20422;53.014;8.886;2022-09-09T14:59:24;100749.41;;;16.83;100.00
34145;BME280;20422;53.014;8.886;2022-09-09T15:01:49;100770.94;;;16.94;100.00
34145;BME280;20422;53.014;8.886;2022-09-09T15:04:15;100771.78;;;17.04;100.00
34145;BME280;20422;53.014;8.886;2022-09-09T15:06:41;100786.16;;;17.05;100.00
34145;BME280;20422;53.014;8.886;2022-09-09T15:09:09;100790.19;;;17.10;100.00
34145;BME280;20422;53.014;8.886;2022-09-09T15:11:36;100782.19;;;16.99;100.00
34145;BME280;20422;53.014;8.886;2022-09-09T15:14:06;100788.75;;;16.97;100.00
34145;BME280;20422;53.014;8.886;2022-09-09T15:16:31;100790.72;;;16.85;100.00
34145;BME280;20422;53.014;8.886;2022-09-09T15:18:59;100764.69;;;16.74;100.00
34145;BME280;20422;53.014;8.886;2022-09-09T15:21:27;100795.31;;;16.94;100.00
34145;BME280;20422;53.014;8.886;2022-09-09T15:23:54;100789.47;;;16.89;100.00
34145;BME280;20422;53.014;8.886;2022-09-09T15:26:20;100795.44;;;16.73;100.00
34145;BME280;20422;53.014;8.886;2022-09-09T15:28:46;100773.44;;;16.47;100.00
34145;BME280;20422;53.014;8.886;2022-09-09T15:31:21;100765.44;;;16.46;100.00
34145;BME280;20422;53.014;8.886;2022-09-09T15:33:55;100784.38;;;16.46;100.00